Terminal Aerodrome Forecast
Issued by NWS

Home | Current Version | Previous Version | Text Only | Print | Product List | Glossary On
Versions: 1 2 3 4 5 6 7 8 9 10 11 12 13 14 15
796
FTUS44 KLZK 291513 AAA
TAFBPK
TAF AMD
KBPK 291513Z 2915/3012 19008KT P6SM SCT030
      TEMPO 2916/2918 BKN030
     FM291800 19008G16KT P6SM BKN050
     FM300100 16008KT P6SM BKN050
     FM301000 16006KT P6SM BKN025=

USA.gov is the U.S. government's official web portal to all federal, state and local government web resources and services.